Time;durP1;ratioP1;P1;durP2;ratioP2;P2;SDS_P1;SDS_P2;PMS_P1;PMS_P2;Temp;Humidity;BMP_temperature;BMP_pressure;BME280_temperature;BME280_humidity;BME280_pressure;Samples;Min_cycle;Max_cycle;Signal;HPM_P1;HPM_P2
2022/04/14 00:00:06;;;;;;;14.32;8.32;;;;;;;10.56;100.00;101640.00;5053652;28;20090;-77
2022/04/14 00:02:51;;;;;;;12.75;8.10;;;;;;;10.39;100.00;101644.38;5056065;28;20032;-77
2022/04/14 00:05:37;;;;;;;12.50;8.50;;;;;;;10.39;100.00;101633.91;5054899;28;20122;-77
2022/04/14 00:08:23;;;;;;;14.80;8.65;;;;;;;10.48;100.00;101624.28;5054621;28;20025;-79
2022/04/14 00:11:09;;;;;;;13.10;8.65;;;;;;;10.43;100.00;101627.78;5055539;28;20055;-77
2022/04/14 00:13:55;;;;;;;16.90;8.30;;;;;;;10.55;100.00;101631.25;5055933;28;20067;-78
2022/04/14 00:16:40;;;;;;;13.82;8.95;;;;;;;10.27;100.00;101621.72;5055071;28;20404;-78
2022/04/14 00:19:26;;;;;;;15.02;8.80;;;;;;;10.55;100.00;101626.03;5057234;28;20021;-77
2022/04/14 00:22:12;;;;;;;10.95;8.13;;;;;;;10.36;100.00;101624.31;5057740;28;20029;-78
2022/04/14 00:24:58;;;;;;;21.17;8.75;;;;;;;10.28;100.00;101625.22;5057690;28;20062;-76
2022/04/14 00:27:43;;;;;;;15.93;9.05;;;;;;;10.09;100.00;101625.22;5061130;28;20056;-76
2022/04/14 00:30:29;;;;;;;13.90;7.95;;;;;;;9.72;100.00;101622.59;5058909;28;20066;-77
2022/04/14 00:33:15;;;;;;;12.52;8.07;;;;;;;10.02;100.00;101614.75;5055166;28;20025;-79
2022/04/14 00:36:01;;;;;;;11.00;8.15;;;;;;;9.95;100.00;101619.13;5054496;28;20099;-78
2022/04/14 00:38:47;;;;;;;11.07;7.28;;;;;;;10.18;100.00;101617.34;5062192;28;20029;-77
2022/04/14 00:41:32;;;;;;;12.50;7.65;;;;;;;10.00;100.00;101627.84;5055258;28;20102;-78
2022/04/14 00:44:18;;;;;;;10.55;7.55;;;;;;;10.15;100.00;101621.75;5055872;28;20453;-77
2022/04/14 00:47:07;;;;;;;9.23;6.97;;;;;;;9.79;100.00;101620.00;5057030;28;20105;-77
2022/04/14 00:49:52;;;;;;;10.60;7.70;;;;;;;9.89;100.00;101621.72;5056779;28;20017;-77
2022/04/14 00:52:46;;;;;;;11.95;7.32;;;;;;;9.65;100.00;101621.72;5056716;28;20025;-78
2022/04/14 00:55:32;;;;;;;9.93;6.90;;;;;;;9.61;100.00;101616.50;5057588;28;20021;-78
2022/04/14 00:58:19;;;;;;;10.02;7.40;;;;;;;9.58;100.00;101625.22;5057711;28;20027;-78
2022/04/14 01:01:05;;;;;;;12.43;7.30;;;;;;;9.86;100.00;101626.09;5056097;28;20029;-77
2022/04/14 01:03:53;;;;;;;10.48;7.35;;;;;;;9.97;100.00;101619.97;5056405;28;20063;-77
2022/04/14 01:06:39;;;;;;;12.70;7.53;;;;;;;9.76;100.00;101625.22;5056873;28;20540;-76
2022/04/14 01:09:26;;;;;;;10.00;7.13;;;;;;;9.71;100.00;101634.81;5056639;28;20024;-77
2022/04/14 01:12:13;;;;;;;10.88;7.25;;;;;;;9.75;100.00;101627.84;5057089;28;20025;-78
2022/04/14 01:14:58;;;;;;;10.38;7.18;;;;;;;10.14;100.00;101638.34;5056201;28;20040;-77
2022/04/14 01:17:44;;;;;;;9.25;6.95;;;;;;;9.98;100.00;101640.03;5055865;28;20142;-77
2022/04/14 01:20:30;;;;;;;9.68;7.07;;;;;;;9.76;100.00;101634.81;5055341;28;20040;-77
2022/04/14 01:23:20;;;;;;;9.32;7.05;;;;;;;10.17;100.00;101630.47;5055986;28;20033;-76
2022/04/14 01:26:05;;;;;;;10.98;7.63;;;;;;;10.00;100.00;101630.44;5056209;28;20060;-76
2022/04/14 01:28:51;;;;;;;11.25;7.65;;;;;;;10.16;100.00;101626.09;5055512;28;20056;-76
2022/04/14 01:31:37;;;;;;;10.02;7.35;;;;;;;10.12;100.00;101634.81;5056279;28;20021;-77
2022/04/14 01:34:24;;;;;;;13.00;7.30;;;;;;;9.88;100.00;101633.06;5055474;28;20343;-77
2022/04/14 01:37:10;;;;;;;14.43;7.38;;;;;;;9.80;100.00;101631.31;5056556;28;20112;-78
2022/04/14 01:39:56;;;;;;;10.13;7.60;;;;;;;9.76;100.00;101633.06;5057256;28;20058;-77
2022/04/14 01:42:42;;;;;;;11.20;7.28;;;;;;;9.74;100.00;101632.19;5055748;28;20021;-77
2022/04/14 01:45:27;;;;;;;10.35;7.40;;;;;;;9.90;100.00;101626.06;5055587;28;20426;-77
2022/04/14 01:48:13;;;;;;;10.30;7.35;;;;;;;9.75;100.00;101619.97;5054924;28;20037;-77
2022/04/14 01:50:59;;;;;;;9.95;7.35;;;;;;;9.92;100.00;101624.34;5061673;28;20063;-76
2022/04/14 01:53:45;;;;;;;12.73;7.53;;;;;;;9.81;100.00;101622.63;5061594;28;20024;-78
2022/04/14 01:56:31;;;;;;;11.80;7.63;;;;;;;10.13;100.00;101616.50;5055158;28;20354;-77
2022/04/14 01:59:17;;;;;;;11.98;7.78;;;;;;;10.04;100.00;101619.09;5055084;28;20025;-77
2022/04/14 02:02:03;;;;;;;10.98;7.45;;;;;;;9.95;100.00;101623.47;5055476;28;20039;-77
2022/04/14 02:04:49;;;;;;;17.75;8.10;;;;;;;10.20;100.00;101625.22;5055182;28;20029;-77
2022/04/14 02:07:35;;;;;;;13.18;7.35;;;;;;;10.01;100.00;101628.72;5055022;28;20061;-78
2022/04/14 02:10:20;;;;;;;10.43;8.00;;;;;;;9.94;100.00;101630.44;5055350;28;20032;-78
2022/04/14 02:13:06;;;;;;;12.68;8.23;;;;;;;10.10;100.00;101632.19;5054577;28;20032;-76
2022/04/14 02:15:52;;;;;;;10.02;7.72;;;;;;;9.99;100.00;101627.81;5054832;28;20104;-77
2022/04/14 02:18:38;;;;;;;14.73;8.30;;;;;;;10.12;100.00;101629.59;5054690;28;20457;-77
2022/04/14 02:21:24;;;;;;;11.48;8.13;;;;;;;10.15;100.00;101629.59;5055401;28;20033;-77
2022/04/14 02:24:09;;;;;;;13.90;8.88;;;;;;;10.12;100.00;101624.34;5054902;28;20377;-76
2022/04/14 02:26:55;;;;;;;13.63;8.95;;;;;;;10.04;100.00;101621.72;5054382;28;20025;-77
2022/04/14 02:29:43;;;;;;;17.15;8.68;;;;;;;10.00;100.00;101625.22;5054337;28;20098;-76
2022/04/14 02:32:29;;;;;;;13.63;8.63;;;;;;;9.87;100.00;101635.69;5054518;28;20029;-76
2022/04/14 02:35:15;;;;;;;19.27;8.45;;;;;;;10.03;100.00;101634.81;5054325;28;20040;-78
2022/04/14 02:38:01;;;;;;;13.20;8.20;;;;;;;9.89;100.00;101634.81;5056035;28;20021;-76
2022/04/14 02:40:46;;;;;;;17.70;8.90;;;;;;;9.98;100.00;101634.78;5054552;28;20032;-77
2022/04/14 02:43:35;;;;;;;18.38;9.05;;;;;;;9.96;100.00;101623.47;5054358;28;20476;-77
2022/04/14 02:46:21;;;;;;;14.75;8.93;;;;;;;9.93;100.00;101631.31;5056575;28;20491;-76
2022/04/14 02:49:07;;;;;;;14.52;9.05;;;;;;;9.84;100.00;101631.31;5056696;28;20047;-76
2022/04/14 02:51:53;;;;;;;16.90;9.18;;;;;;;9.65;100.00;101616.47;5072134;28;20036;-76
2022/04/14 02:54:39;;;;;;;14.75;9.23;;;;;;;9.15;100.00;101628.63;5059176;28;20064;-78
2022/04/14 02:57:24;;;;;;;17.10;9.90;;;;;;;8.80;100.00;101626.75;5054208;28;20036;-78
2022/04/14 03:00:11;;;;;;;14.27;8.98;;;;;;;8.73;100.00;101625.84;5053926;28;20538;-77
2022/04/14 03:02:57;;;;;;;19.05;9.68;;;;;;;9.11;100.00;101625.97;5054429;28;20398;-76
2022/04/14 03:05:43;;;;;;;17.67;9.52;;;;;;;9.33;100.00;101623.41;5054845;28;20087;-77
2022/04/14 03:08:29;;;;;;;15.13;9.65;;;;;;;9.23;100.00;101631.25;5074850;28;20048;-75
2022/04/14 03:11:14;;;;;;;13.25;8.73;;;;;;;9.23;100.00;101626.00;5054530;28;20112;-77
2022/04/14 03:14:01;;;;;;;14.73;8.90;;;;;;;9.16;100.00;101632.97;5053897;28;20396;-76
2022/04/14 03:16:47;;;;;;;14.95;9.05;;;;;;;8.93;100.00;101641.63;5053547;28;20021;-77
2022/04/14 03:19:32;;;;;;;13.45;8.82;;;;;;;9.03;100.00;101646.00;5053640;28;20043;-78
2022/04/14 03:22:18;;;;;;;13.77;8.70;;;;;;;9.16;100.00;101647.78;5054286;28;20025;-77
2022/04/14 03:25:06;;;;;;;13.20;9.00;;;;;;;9.10;100.00;101656.50;5053083;28;20028;-76
2022/04/14 03:27:52;;;;;;;17.13;9.68;;;;;;;8.92;100.00;101659.03;5053852;28;20478;-77
2022/04/14 03:30:38;;;;;;;21.55;10.20;;;;;;;9.12;100.00;101665.19;5053187;28;20043;-77
2022/04/14 03:33:24;;;;;;;17.38;10.43;;;;;;;9.35;100.00;101658.31;5054444;28;20028;-76
2022/04/14 03:36:09;;;;;;;19.92;11.70;;;;;;;9.30;100.00;101657.44;5054314;28;20032;-76
2022/04/14 03:38:55;;;;;;;17.83;10.88;;;;;;;9.06;100.00;101664.31;5054642;28;20017;-78
2022/04/14 03:41:41;;;;;;;16.10;10.02;;;;;;;9.17;100.00;101660.00;5051840;28;20025;-77
2022/04/14 03:44:27;;;;;;;17.60;9.68;;;;;;;9.14;100.00;101668.72;5055231;28;20060;-77
2022/04/14 03:47:12;;;;;;;18.10;11.43;;;;;;;8.84;100.00;101672.94;5053023;28;20045;-78
2022/04/14 03:49:58;;;;;;;23.23;11.02;;;;;;;9.05;100.00;101679.09;5054748;28;20021;-77
2022/04/14 03:52:44;;;;;;;20.58;12.13;;;;;;;9.29;100.00;101676.59;5054250;28;20098;-77
2022/04/14 03:55:29;;;;;;;22.40;11.88;;;;;;;9.25;100.00;101677.44;5054808;28;20053;-77
2022/04/14 03:58:15;;;;;;;31.20;11.43;;;;;;;9.21;100.00;101682.69;5054466;28;20025;-76
2022/04/14 04:01:01;;;;;;;25.40;11.80;;;;;;;9.23;100.00;101689.66;5053945;28;20039;-77
2022/04/14 04:03:48;;;;;;;20.58;11.57;;;;;;;8.99;100.00;101689.56;5054156;28;20040;-78
2022/04/14 04:06:33;;;;;;;21.15;13.40;;;;;;;9.08;100.00;101683.47;5051824;28;20107;-77
2022/04/14 04:09:20;;;;;;;25.17;13.82;;;;;;;8.90;100.00;101694.75;5052569;28;20497;-77
2022/04/14 04:12:07;;;;;;;25.15;13.70;;;;;;;9.11;100.00;101686.09;5054193;28;20461;-77
2022/04/14 04:14:52;;;;;;;22.77;13.20;;;;;;;9.11;100.00;101693.94;5053556;28;20093;-78
2022/04/14 04:17:39;;;;;;;20.48;11.95;;;;;;;9.00;100.00;101700.88;5069252;28;20092;-76
2022/04/14 04:20:25;;;;;;;22.77;12.02;;;;;;;9.26;100.00;101694.00;5065015;28;20040;-77
2022/04/14 04:23:10;;;;;;;18.75;11.73;;;;;;;9.14;100.00;101697.47;5058587;28;20033;-77
2022/04/14 04:25:56;;;;;;;19.30;11.32;;;;;;;9.06;100.00;101704.41;5059496;28;20099;-76
2022/04/14 04:28:42;;;;;;;23.73;12.30;;;;;;;9.21;100.00;101695.75;5056499;28;20029;-77
2022/04/14 04:31:28;;;;;;;25.70;13.35;;;;;;;9.15;100.00;101706.16;5058512;28;20055;-76
2022/04/14 04:34:13;;;;;;;25.80;13.68;;;;;;;9.21;100.00;101701.81;5058315;28;20122;-77
2022/04/14 04:36:59;;;;;;;29.02;13.13;;;;;;;9.01;100.00;101707.88;5057674;28;20024;-77
2022/04/14 04:39:45;;;;;;;27.02;14.20;;;;;;;9.32;100.00;101705.38;5058152;28;20053;-78
2022/04/14 04:42:31;;;;;;;25.65;13.82;;;;;;;9.33;100.00;101711.47;5057397;28;20029;-76
2022/04/14 04:45:17;;;;;;;26.20;13.57;;;;;;;9.42;100.00;101711.50;5057835;28;20450;-78
2022/04/14 04:48:04;;;;;;;24.55;13.82;;;;;;;9.48;100.00;101707.16;5057416;28;20138;-77
2022/04/14 04:50:51;;;;;;;25.17;13.82;;;;;;;9.47;100.00;101709.75;5055082;28;20036;-76
2022/04/14 04:53:36;;;;;;;29.67;14.00;;;;;;;9.47;100.00;101709.75;5058078;28;20067;-75
2022/04/14 04:56:22;;;;;;;25.45;13.45;;;;;;;9.58;100.00;101710.69;5058142;28;20032;-76
2022/04/14 04:59:08;;;;;;;23.52;12.93;;;;;;;9.54;100.00;101717.66;5055650;28;20104;-76
2022/04/14 05:01:54;;;;;;;17.48;11.82;;;;;;;9.74;100.00;101710.69;5057543;28;20021;-77
2022/04/14 05:04:39;;;;;;;19.92;11.57;;;;;;;9.79;100.00;101714.22;5057911;28;20036;-77
2022/04/14 05:07:30;;;;;;;20.23;11.20;;;;;;;10.10;100.00;101723.84;5067210;28;20089;-78
2022/04/14 05:10:17;;;;;;;18.48;11.45;;;;;;;10.62;100.00;101716.84;5057293;28;20086;-75
2022/04/14 05:13:04;;;;;;;18.10;11.23;;;;;;;10.82;97.79;101717.69;5056879;28;20052;-77
2022/04/14 05:15:49;;;;;;;25.02;11.07;;;;;;;11.03;94.90;101732.47;5056436;28;20060;-75
2022/04/14 05:18:35;;;;;;;23.48;12.20;;;;;;;11.33;92.13;101720.09;5057182;28;20024;-74
2022/04/14 05:21:21;;;;;;;25.65;13.13;;;;;;;11.41;89.89;101731.44;5057670;28;20028;-72
2022/04/14 05:24:07;;;;;;;21.73;12.20;;;;;;;11.45;90.54;101733.16;5054701;28;20367;-74
2022/04/14 05:26:52;;;;;;;21.05;12.77;;;;;;;11.85;86.38;101734.72;5055857;28;20441;-76
2022/04/14 05:29:38;;;;;;;32.88;12.02;;;;;;;11.63;88.83;101738.38;5056277;28;20373;-74
2022/04/14 05:32:24;;;;;;;20.13;10.80;;;;;;;11.35;88.15;101743.69;5055502;28;20021;-75
2022/04/14 05:35:10;;;;;;;20.58;11.45;;;;;;;11.55;87.54;101744.47;5057114;28;20028;-74
2022/04/14 05:37:56;;;;;;;21.45;10.80;;;;;;;11.65;85.23;101741.84;5054964;28;20017;-75
2022/04/14 05:40:43;;;;;;;14.82;10.35;;;;;;;11.83;84.24;101743.47;5055157;28;20035;-75
2022/04/14 05:43:30;;;;;;;18.63;11.30;;;;;;;12.05;82.49;101745.94;5056454;28;20037;-74
2022/04/14 05:46:16;;;;;;;20.55;10.43;;;;;;;12.26;82.18;101753.66;5054680;28;20056;-77
2022/04/14 05:49:02;;;;;;;22.92;11.90;;;;;;;12.15;81.61;101741.50;5056347;28;20029;-75
2022/04/14 05:51:48;;;;;;;40.40;13.27;;;;;;;12.02;84.00;101739.88;5054733;28;20020;-75
2022/04/14 05:54:34;;;;;;;30.63;12.30;;;;;;;12.26;80.30;101743.16;5055951;28;20032;-75
2022/04/14 05:57:22;;;;;;;19.70;10.65;;;;;;;12.09;81.83;101745.03;5056385;28;20370;-76
2022/04/14 06:00:09;;;;;;;17.05;10.70;;;;;;;12.27;80.82;101744.94;5053982;28;20032;-75
2022/04/14 06:02:54;;;;;;;19.30;10.40;;;;;;;12.35;80.96;101747.47;5054985;28;20056;-75
2022/04/14 06:05:40;;;;;;;16.27;9.32;;;;;;;12.58;79.84;101751.63;5054099;28;20020;-75
2022/04/14 06:08:27;;;;;;;15.85;9.65;;;;;;;12.72;80.11;101757.66;5057020;28;20029;-75
2022/04/14 06:11:12;;;;;;;18.13;10.25;;;;;;;12.62;79.90;101753.34;5056100;28;20405;-75
2022/04/14 06:13:58;;;;;;;18.50;10.40;;;;;;;12.64;80.81;101748.97;5053913;28;20442;-74
2022/04/14 06:16:44;;;;;;;15.95;9.75;;;;;;;12.35;80.20;101747.47;5044582;28;20063;-73
2022/04/14 06:19:30;;;;;;;19.75;11.80;;;;;;;12.45;82.21;101752.63;5043938;28;20033;-74
2022/04/14 06:22:15;;;;;;;16.42;10.75;;;;;;;13.06;78.46;101760.84;5038318;28;20028;-74
2022/04/14 06:25:01;;;;;;;18.30;10.27;;;;;;;13.27;76.55;101755.34;5029851;28;20044;-72
2022/04/14 06:27:47;;;;;;;22.05;10.82;;;;;;;13.35;75.27;101748.22;5034587;28;20036;-73
2022/04/14 06:30:33;;;;;;;19.55;10.23;;;;;;;13.34;74.07;101747.34;5037986;28;20746;-73
2022/04/14 06:33:20;;;;;;;18.00;10.20;;;;;;;13.13;74.06;101750.22;5035809;28;20025;-74
2022/04/14 06:36:06;;;;;;;23.65;10.75;;;;;;;13.29;74.78;101757.06;5032249;28;20145;-74
2022/04/14 06:38:52;;;;;;;20.33;9.93;;;;;;;13.80;71.35;101751.13;5039464;28;20032;-73
2022/04/14 06:41:39;;;;;;;17.27;9.93;;;;;;;13.58;71.10;101762.81;5047931;28;20036;-75
2022/04/14 06:44:25;;;;;;;20.02;10.02;;;;;;;13.96;70.77;101757.91;5038301;28;20127;-74
2022/04/14 06:47:11;;;;;;;17.40;9.88;;;;;;;14.60;66.41;101758.63;5034939;28;20045;-74
2022/04/14 06:49:57;;;;;;;21.05;10.15;;;;;;;14.66;65.20;101757.66;5040069;28;20543;-73
2022/04/14 06:52:42;;;;;;;18.65;9.88;;;;;;;14.90;64.93;101757.19;5033567;28;20028;-75
2022/04/14 06:55:32;;;;;;;24.40;12.20;;;;;;;14.86;64.92;101749.38;5034135;28;20446;-74
2022/04/14 06:58:18;;;;;;;21.95;11.90;;;;;;;14.91;64.73;101761.56;5029368;28;20116;-74
2022/04/14 07:01:04;;;;;;;17.10;10.70;;;;;;;14.83;64.52;101760.84;5035053;28;20432;-73
2022/04/14 07:03:50;;;;;;;18.02;9.90;;;;;;;15.08;62.77;101761.28;5032748;28;20112;-74
2022/04/14 07:06:36;;;;;;;23.77;9.90;;;;;;;14.84;62.62;101765.25;5029823;28;20448;-73
2022/04/14 07:09:24;;;;;;;16.45;9.75;;;;;;;15.73;61.33;101768.75;5032011;28;20063;-74
2022/04/14 07:12:10;;;;;;;17.77;10.20;;;;;;;15.87;60.08;101764.88;5035257;28;20171;-73
2022/04/14 07:14:56;;;;;;;22.00;11.95;;;;;;;15.91;60.26;101768.34;5032270;28;20114;-74
2022/04/14 07:17:42;;;;;;;23.08;12.32;;;;;;;15.74;60.34;101768.72;5038758;28;20348;-74
2022/04/14 07:20:30;;;;;;;20.52;12.23;;;;;;;16.65;58.48;101775.38;5038431;28;20032;-73
2022/04/14 07:23:16;;;;;;;26.88;12.70;;;;;;;16.67;58.95;101771.78;5033874;28;20029;-75
2022/04/14 07:26:01;;;;;;;22.38;12.13;;;;;;;16.78;60.38;101769.72;5027945;28;20026;-73
2022/04/14 07:28:47;;;;;;;22.17;11.88;;;;;;;15.86;64.93;101770.19;5039794;28;20051;-73
2022/04/14 07:31:34;;;;;;;29.95;12.02;;;;;;;16.13;66.15;101775.75;5040736;28;20025;-74
2022/04/14 07:34:19;;;;;;;24.52;12.05;;;;;;;16.14;66.05;101771.31;5030476;28;20028;-74
2022/04/14 07:37:05;;;;;;;29.02;12.15;;;;;;;16.06;66.14;101778.56;5030537;28;20041;-73
2022/04/14 07:39:51;;;;;;;26.70;11.57;;;;;;;16.44;66.25;101783.84;5028612;28;20446;-74
2022/04/14 07:42:39;;;;;;;19.60;10.95;;;;;;;16.54;65.46;101786.22;5029152;28;20033;-73
2022/04/14 07:45:25;;;;;;;28.55;11.25;;;;;;;16.30;66.51;101783.25;5028724;28;20112;-73
2022/04/14 07:48:11;;;;;;;19.15;10.77;;;;;;;17.08;63.04;101789.22;5034120;28;20070;-73
2022/04/14 07:50:59;;;;;;;22.10;10.23;;;;;;;16.65;62.24;101781.53;5037120;28;20037;-74
2022/04/14 07:53:45;;;;;;;18.33;10.07;;;;;;;16.96;62.41;101793.06;5033437;28;20078;-74
2022/04/14 07:56:31;;;;;;;20.25;10.32;;;;;;;17.21;61.96;101793.28;5032268;28;20462;-73
2022/04/14 07:59:16;;;;;;;21.63;11.73;;;;;;;17.45;60.80;101789.97;5031083;28;20029;-74
2022/04/14 08:02:02;;;;;;;25.83;11.38;;;;;;;17.33;60.15;101787.63;5034585;28;20029;-74
2022/04/14 08:04:49;;;;;;;21.30;11.02;;;;;;;17.38;59.98;101778.66;5031890;28;20605;-74
2022/04/14 08:07:35;;;;;;;23.13;11.38;;;;;;;17.69;59.13;101781.31;5035632;28;20048;-74
2022/04/14 08:10:21;;;;;;;20.45;10.05;;;;;;;17.64;58.55;101778.78;5033051;28;20025;-75
2022/04/14 08:13:07;;;;;;;22.90;10.50;;;;;;;17.39;58.01;101782.16;5033306;28;20045;-75
2022/04/14 08:15:53;;;;;;;21.83;9.35;;;;;;;17.41;58.00;101770.63;5035199;28;20518;-75
2022/04/14 08:18:40;;;;;;;17.92;9.52;;;;;;;17.62;56.22;101772.66;5035839;28;20030;-74
2022/04/14 08:21:26;;;;;;;17.48;9.80;;;;;;;17.89;55.27;101766.50;5039567;28;20033;-73
2022/04/14 08:24:11;;;;;;;20.75;9.27;;;;;;;17.90;53.97;101772.69;5028499;28;20067;-73
2022/04/14 08:26:58;;;;;;;19.83;8.95;;;;;;;18.93;50.97;101776.38;5035287;28;20030;-73
2022/04/14 08:29:43;;;;;;;17.15;8.35;;;;;;;19.06;49.71;101775.00;5031729;28;20178;-73
2022/04/14 08:32:29;;;;;;;17.38;9.00;;;;;;;19.58;49.80;101777.53;5029136;28;20033;-73
2022/04/14 08:35:17;;;;;;;17.75;8.48;;;;;;;19.03;45.63;101773.34;5031590;28;20033;-73
2022/04/14 08:38:06;;;;;;;11.25;6.82;;;;;;;19.33;42.86;101765.22;5028748;28;20085;-74
2022/04/14 08:41:00;;;;;;;12.52;7.35;;;;;;;20.32;41.75;101764.84;5032783;28;20052;-72
2022/04/14 08:44:01;;;;;;;16.17;7.95;;;;;;;20.24;41.08;101766.94;5034686;28;20029;-74
2022/04/14 08:46:47;;;;;;;11.70;6.80;;;;;;;20.02;39.20;101759.84;5033732;28;20041;-77
2022/04/14 08:49:34;;;;;;;10.60;6.88;;;;;;;20.05;39.39;101755.25;5031475;28;20365;-75
2022/04/14 08:52:21;;;;;;;10.32;6.80;;;;;;;20.28;38.69;101755.25;5029681;28;20191;-76
2022/04/14 08:55:10;;;;;;;8.25;5.80;;;;;;;20.24;36.58;101756.28;5035167;28;20044;-77
2022/04/14 08:57:56;;;;;;;10.70;6.05;;;;;;;20.48;35.03;101759.75;5018021;28;20017;-76
2022/04/14 09:00:43;;;;;;;6.45;4.82;;;;;;;20.52;34.42;101756.91;5028835;28;20044;-76
2022/04/14 09:03:31;;;;;;;10.25;5.47;;;;;;;20.07;35.29;101755.22;5034317;28;20040;-74
2022/04/14 09:06:17;;;;;;;7.57;4.00;;;;;;;20.42;33.55;101755.56;5043905;28;20021;-76
2022/04/14 09:09:03;;;;;;;5.07;3.60;;;;;;;20.55;31.74;101754.09;5040371;28;20072;-75
2022/04/14 09:11:48;;;;;;;4.40;3.47;;;;;;;20.48;32.66;101757.94;5038302;28;20129;-76
2022/04/14 09:14:34;;;;;;;5.97;3.70;;;;;;;20.55;31.63;101755.91;5034233;28;20120;-76
2022/04/14 09:17:20;;;;;;;5.95;4.25;;;;;;;20.54;31.98;101760.34;5032233;28;20040;-75
2022/04/14 09:20:42;;;;;;;5.93;4.30;;;;;;;20.71;32.01;101763.19;5036491;28;20576;-75
2022/04/14 09:23:28;;;;;;;9.55;4.30;;;;;;;20.08;32.07;101749.81;5036002;28;20052;-75
2022/04/14 09:26:14;;;;;;;7.55;4.57;;;;;;;20.20;32.85;101760.00;5040905;28;20040;-75
2022/04/14 09:29:04;;;;;;;7.63;5.38;;;;;;;20.47;33.92;101752.69;5034721;28;20703;-74
2022/04/14 09:31:51;;;;;;;8.23;6.07;;;;;;;20.25;35.74;101747.38;5036359;28;20086;-75
2022/04/14 09:34:51;;;;;;;9.32;5.65;;;;;;;19.50;36.47;101749.50;5036646;28;20044;-75
2022/04/14 09:37:39;;;;;;;7.40;5.38;;;;;;;19.69;35.90;101740.75;5044222;28;20028;-76
2022/04/14 09:40:29;;;;;;;8.55;4.78;;;;;;;20.45;34.21;101744.75;5039618;28;20099;-76
2022/04/14 09:43:16;;;;;;;4.97;3.35;;;;;;;20.67;31.20;101744.72;5037166;28;20361;-76
2022/04/14 09:46:02;;;;;;;6.22;4.05;;;;;;;20.34;31.24;101746.16;5039072;28;20054;-75
2022/04/14 09:49:27;;;;;;;4.82;4.00;;;;;;;20.19;33.41;101736.13;5033338;28;20134;-75
2022/04/14 09:52:13;;;;;;;5.63;4.38;;;;;;;20.15;32.74;101729.19;5033294;28;20468;-76
2022/04/14 09:55:09;;;;;;;6.22;4.30;;;;;;;20.46;34.76;101725.22;5041385;28;20033;-76
2022/04/14 09:58:12;;;;;;;7.57;4.30;;;;;;;20.81;33.89;101727.22;5031289;28;20406;-76
2022/04/14 10:00:59;;;;;;;8.18;5.75;;;;;;;20.55;34.00;101723.94;5035704;28;20037;-75
2022/04/14 10:03:44;;;;;;;12.13;7.63;;;;;;;20.37;34.50;101716.75;5038672;28;20109;-74
2022/04/14 10:06:30;;;;;;;7.43;4.72;;;;;;;19.75;33.99;101713.06;5037214;28;20053;-74
2022/04/14 10:09:30;;;;;;;8.25;4.47;;;;;;;19.76;34.61;101713.00;5031544;28;20061;-76
2022/04/14 10:12:15;;;;;;;6.82;4.55;;;;;;;19.95;35.25;101710.47;5033234;28;20036;-75
2022/04/14 10:15:05;;;;;;;8.88;4.57;;;;;;;19.76;34.43;101710.34;5034236;28;20852;-76
2022/04/14 10:17:51;;;;;;;6.53;4.63;;;;;;;20.33;34.47;101715.13;5036477;28;20017;-74
2022/04/14 10:20:39;;;;;;;7.05;4.80;;;;;;;20.54;33.37;101712.41;5042802;28;20443;-73
2022/04/14 10:23:28;;;;;;;6.13;4.30;;;;;;;20.49;33.36;101711.75;5034892;28;20032;-74
2022/04/14 10:26:15;;;;;;;6.88;4.60;;;;;;;19.95;34.12;101703.38;5038118;28;20032;-74
2022/04/14 10:29:03;;;;;;;7.68;4.85;;;;;;;20.73;33.62;101713.34;5030172;28;20033;-74
2022/04/14 10:31:53;;;;;;;5.68;4.50;;;;;;;20.75;34.10;101713.31;5039109;28;20029;-74
2022/04/14 10:34:40;;;;;;;6.55;4.60;;;;;;;20.81;33.57;101705.06;5041729;28;20079;-73
2022/04/14 10:37:30;;;;;;;7.05;4.30;;;;;;;20.18;33.75;101707.78;5033305;28;20021;-74
2022/04/14 10:40:16;;;;;;;6.88;4.63;;;;;;;20.23;33.98;101712.00;5041053;28;20043;-74
2022/04/14 10:43:07;;;;;;;8.57;4.90;;;;;;;20.70;33.00;101716.16;5038568;28;20029;-75
2022/04/14 10:45:55;;;;;;;7.40;4.30;;;;;;;20.92;33.13;101719.66;5035375;28;20029;-76
2022/04/14 10:48:42;;;;;;;5.07;4.10;;;;;;;20.50;31.22;101716.16;5037120;28;21170;-75
2022/04/14 10:51:29;;;;;;;7.88;4.78;;;;;;;20.58;31.83;101723.81;5031831;28;20111;-74
2022/04/14 10:54:18;;;;;;;6.20;4.43;;;;;;;20.13;32.27;101720.41;5036284;28;20104;-75
2022/04/14 10:57:04;;;;;;;5.47;4.40;;;;;;;20.65;32.27;101715.50;5035021;28;20033;-75
2022/04/14 10:59:51;;;;;;;7.57;4.45;;;;;;;20.69;33.03;101717.09;5035772;28;20028;-74
2022/04/14 11:03:05;;;;;;;7.25;4.38;;;;;;;20.94;32.85;101709.78;5032979;28;20075;-76
2022/04/14 11:05:50;;;;;;;7.22;4.25;;;;;;;21.46;32.71;101711.81;5036635;28;20020;-75
2022/04/14 11:08:46;;;;;;;8.05;4.30;;;;;;;21.10;32.03;101705.50;5041584;28;21470;-76
2022/04/14 11:11:58;;;;;;;5.35;4.20;;;;;;;21.52;32.12;101700.00;5040942;28;20045;-75
2022/04/14 11:14:49;;;;;;;5.53;4.28;;;;;;;20.98;32.16;101707.88;5033514;28;20032;-75
2022/04/14 11:17:53;;;;;;;9.52;4.55;;;;;;;20.46;33.44;101698.59;5031229;28;20355;-76
2022/04/14 11:20:44;;;;;;;5.93;3.83;;;;;;;21.28;32.73;101690.47;5036963;28;20041;-77
2022/04/14 11:23:32;;;;;;;6.95;4.13;;;;;;;21.01;31.77;101703.25;5031228;28;20033;-76
2022/04/14 11:26:35;;;;;;;5.88;4.25;;;;;;;21.19;31.04;101694.44;5042026;28;20044;-75
2022/04/14 11:29:31;;;;;;;4.82;3.83;;;;;;;21.84;30.91;101700.25;5043718;28;20024;-76
2022/04/14 11:32:36;;;;;;;8.60;4.18;;;;;;;21.64;32.01;101696.75;5030059;28;20029;-75
2022/04/14 11:35:31;;;;;;;4.85;3.97;;;;;;;21.56;31.54;101689.13;5018880;28;20610;-77
2022/04/14 11:38:57;;;;;;;4.32;3.58;;;;;;;21.44;32.29;101697.72;5031852;28;20021;-77
2022/04/14 11:41:44;;;;;;;6.82;4.07;;;;;;;21.33;32.68;101692.00;5034219;28;20033;-77
2022/04/14 11:44:32;;;;;;;6.15;3.58;;;;;;;21.49;32.02;101692.13;5032906;28;20466;-76
2022/04/14 11:47:18;;;;;;;4.70;3.72;;;;;;;22.07;31.43;101689.28;5036100;28;20136;-77
2022/04/14 11:50:06;;;;;;;4.57;3.50;;;;;;;21.92;31.58;101682.06;5036673;28;20029;-77
2022/04/14 11:52:59;;;;;;;4.50;3.75;;;;;;;21.72;31.95;101690.16;5026887;28;20378;-77
2022/04/14 11:55:45;;;;;;;5.25;3.78;;;;;;;21.74;31.15;101685.59;5033185;28;20067;-75
2022/04/14 11:58:34;;;;;;;5.55;3.20;;;;;;;21.51;30.98;101685.81;5033726;28;20123;-74
2022/04/14 12:01:21;;;;;;;4.55;3.70;;;;;;;21.14;31.34;101690.25;5028971;28;20052;-75
2022/04/14 12:04:07;;;;;;;5.53;4.10;;;;;;;21.48;31.74;101679.75;5033605;28;20420;-75
2022/04/14 12:06:55;;;;;;;5.07;3.90;;;;;;;21.88;32.09;101682.28;5032526;28;20033;-75
2022/04/14 12:09:42;;;;;;;7.68;4.60;;;;;;;21.39;31.71;101680.19;5038295;28;20120;-75
2022/04/14 12:12:31;;;;;;;5.75;3.45;;;;;;;21.47;30.55;101686.91;5029044;28;20040;-76
2022/04/14 12:15:17;;;;;;;5.72;3.88;;;;;;;21.99;30.34;101679.94;5035175;28;20125;-75
2022/04/14 12:18:06;;;;;;;6.10;3.30;;;;;;;21.59;30.57;101672.09;5032705;28;20304;-75
2022/04/14 12:20:52;;;;;;;7.15;4.00;;;;;;;21.15;31.71;101663.53;5030991;28;20024;-75
2022/04/14 12:23:46;;;;;;;6.00;4.00;;;;;;;21.40;32.06;101660.56;5027334;28;20032;-76
2022/04/14 12:26:35;;;;;;;5.15;3.30;;;;;;;21.78;31.84;101662.34;5034897;28;20462;-74
2022/04/14 12:29:22;;;;;;;5.07;3.13;;;;;;;22.01;31.53;101652.25;5028342;28;20343;-76
2022/04/14 12:32:13;;;;;;;5.30;3.80;;;;;;;21.92;32.13;101652.69;5026339;28;20065;-74
2022/04/14 12:34:59;;;;;;;5.70;3.90;;;;;;;22.16;33.19;101645.28;5027451;28;20108;-77
2022/04/14 12:37:45;;;;;;;5.05;3.83;;;;;;;22.25;32.55;101645.66;5028792;28;20454;-75
2022/04/14 12:40:31;;;;;;;5.80;3.70;;;;;;;21.90;32.57;101633.22;5042084;28;20110;-75
2022/04/14 12:43:24;;;;;;;6.07;3.97;;;;;;;21.94;33.02;101626.78;5035197;28;20029;-75
2022/04/14 12:46:34;;;;;;;6.03;3.78;;;;;;;21.72;33.24;101626.13;5040532;28;20184;-74
2022/04/14 12:49:32;;;;;;;5.43;3.65;;;;;;;22.04;33.65;101622.75;5041266;28;20049;-76